sensor_id;sensor_type;location;lat;lon;timestamp;P1;durP1;ratioP1;P2;durP2;ratioP2
36547;SDS011;22551;52.206;4.856;2022-08-16T00:03:16;21.13;;;14.32;;
36547;SDS011;22551;52.206;4.856;2022-08-16T00:08:19;21.70;;;13.98;;
36547;SDS011;22551;52.206;4.856;2022-08-16T00:13:21;24.53;;;17.10;;
36547;SDS011;22551;52.206;4.856;2022-08-16T00:18:24;27.55;;;16.88;;
36547;SDS011;22551;52.206;4.856;2022-08-16T00:23:27;30.13;;;18.85;;
36547;SDS011;22551;52.206;4.856;2022-08-16T00:28:29;25.85;;;17.40;;
36547;SDS011;22551;52.206;4.856;2022-08-16T00:33:31;31.17;;;19.02;;
36547;SDS011;22551;52.206;4.856;2022-08-16T00:38:35;31.45;;;19.05;;
36547;SDS011;22551;52.206;4.856;2022-08-16T00:43:37;27.73;;;18.70;;
36547;SDS011;22551;52.206;4.856;2022-08-16T00:48:40;26.85;;;18.38;;
36547;SDS011;22551;52.206;4.856;2022-08-16T00:53:46;26.10;;;18.00;;
36547;SDS011;22551;52.206;4.856;2022-08-16T00:58:49;31.13;;;19.48;;
36547;SDS011;22551;52.206;4.856;2022-08-16T01:03:52;30.67;;;18.75;;
36547;SDS011;22551;52.206;4.856;2022-08-16T01:08:57;29.10;;;18.43;;
36547;SDS011;22551;52.206;4.856;2022-08-16T01:14:11;31.30;;;20.17;;
36547;SDS011;22551;52.206;4.856;2022-08-16T01:19:19;29.90;;;18.95;;
36547;SDS011;22551;52.206;4.856;2022-08-16T01:24:28;31.02;;;19.65;;
36547;SDS011;22551;52.206;4.856;2022-08-16T01:29:35;28.75;;;18.90;;
36547;SDS011;22551;52.206;4.856;2022-08-16T01:34:42;31.63;;;20.08;;
36547;SDS011;22551;52.206;4.856;2022-08-16T01:39:47;31.60;;;20.47;;
36547;SDS011;22551;52.206;4.856;2022-08-16T01:44:49;34.73;;;21.77;;
36547;SDS011;22551;52.206;4.856;2022-08-16T01:49:51;29.75;;;19.38;;
36547;SDS011;22551;52.206;4.856;2022-08-16T01:54:55;31.08;;;19.88;;
36547;SDS011;22551;52.206;4.856;2022-08-16T01:59:57;31.52;;;20.83;;
36547;SDS011;22551;52.206;4.856;2022-08-16T02:05:00;31.92;;;20.98;;
36547;SDS011;22551;52.206;4.856;2022-08-16T02:10:05;36.97;;;22.05;;
36547;SDS011;22551;52.206;4.856;2022-08-16T02:15:08;35.72;;;21.52;;
36547;SDS011;22551;52.206;4.856;2022-08-16T02:20:11;32.65;;;20.75;;
36547;SDS011;22551;52.206;4.856;2022-08-16T02:25:15;34.35;;;20.60;;
36547;SDS011;22551;52.206;4.856;2022-08-16T02:30:19;38.47;;;20.87;;
36547;SDS011;22551;52.206;4.856;2022-08-16T02:35:25;34.47;;;20.63;;
36547;SDS011;22551;52.206;4.856;2022-08-16T02:40:29;35.80;;;20.67;;
36547;SDS011;22551;52.206;4.856;2022-08-16T02:45:31;32.47;;;19.53;;
36547;SDS011;22551;52.206;4.856;2022-08-16T02:50:33;38.30;;;21.95;;
36547;SDS011;22551;52.206;4.856;2022-08-16T02:55:37;33.15;;;20.23;;
36547;SDS011;22551;52.206;4.856;2022-08-16T03:00:39;34.57;;;20.30;;
36547;SDS011;22551;52.206;4.856;2022-08-16T03:05:41;30.58;;;19.80;;
36547;SDS011;22551;52.206;4.856;2022-08-16T03:10:45;33.70;;;21.52;;
36547;SDS011;22551;52.206;4.856;2022-08-16T03:15:48;37.92;;;23.98;;
36547;SDS011;22551;52.206;4.856;2022-08-16T03:20:51;35.63;;;20.27;;
36547;SDS011;22551;52.206;4.856;2022-08-16T03:25:56;35.63;;;21.05;;
36547;SDS011;22551;52.206;4.856;2022-08-16T03:30:59;35.67;;;21.07;;
36547;SDS011;22551;52.206;4.856;2022-08-16T03:36:01;35.90;;;20.85;;
36547;SDS011;22551;52.206;4.856;2022-08-16T03:41:06;37.60;;;21.90;;
36547;SDS011;22551;52.206;4.856;2022-08-16T03:46:08;34.35;;;19.75;;
36547;SDS011;22551;52.206;4.856;2022-08-16T03:51:11;35.67;;;20.33;;
36547;SDS011;22551;52.206;4.856;2022-08-16T03:56:14;33.83;;;21.20;;
36547;SDS011;22551;52.206;4.856;2022-08-16T04:01:17;32.63;;;20.33;;
36547;SDS011;22551;52.206;4.856;2022-08-16T04:06:19;33.75;;;20.50;;
36547;SDS011;22551;52.206;4.856;2022-08-16T04:11:23;36.38;;;21.38;;
36547;SDS011;22551;52.206;4.856;2022-08-16T04:16:25;36.80;;;21.30;;
36547;SDS011;22551;52.206;4.856;2022-08-16T04:21:27;32.30;;;20.27;;
36547;SDS011;22551;52.206;4.856;2022-08-16T04:26:31;38.15;;;21.23;;
36547;SDS011;22551;52.206;4.856;2022-08-16T04:31:33;36.67;;;22.03;;
36547;SDS011;22551;52.206;4.856;2022-08-16T04:36:35;38.38;;;23.20;;
36547;SDS011;22551;52.206;4.856;2022-08-16T04:41:39;42.97;;;23.38;;
36547;SDS011;22551;52.206;4.856;2022-08-16T04:46:41;38.83;;;24.10;;
36547;SDS011;22551;52.206;4.856;2022-08-16T04:51:43;41.75;;;22.88;;
36547;SDS011;22551;52.206;4.856;2022-08-16T04:56:47;41.35;;;23.13;;
36547;SDS011;22551;52.206;4.856;2022-08-16T05:01:49;40.03;;;24.07;;
36547;SDS011;22551;52.206;4.856;2022-08-16T05:06:55;47.67;;;23.80;;
36547;SDS011;22551;52.206;4.856;2022-08-16T05:11:59;43.80;;;23.73;;
36547;SDS011;22551;52.206;4.856;2022-08-16T05:17:01;36.83;;;22.33;;
36547;SDS011;22551;52.206;4.856;2022-08-16T05:22:03;42.72;;;23.55;;
36547;SDS011;22551;52.206;4.856;2022-08-16T05:27:06;39.03;;;22.95;;
36547;SDS011;22551;52.206;4.856;2022-08-16T05:32:09;43.43;;;24.03;;
36547;SDS011;22551;52.206;4.856;2022-08-16T05:37:11;45.88;;;25.67;;
36547;SDS011;22551;52.206;4.856;2022-08-16T05:42:17;42.47;;;23.67;;
36547;SDS011;22551;52.206;4.856;2022-08-16T05:47:19;46.87;;;26.97;;
36547;SDS011;22551;52.206;4.856;2022-08-16T05:52:21;36.00;;;22.88;;
36547;SDS011;22551;52.206;4.856;2022-08-16T05:57:25;38.33;;;22.98;;
36547;SDS011;22551;52.206;4.856;2022-08-16T06:02:27;42.07;;;23.83;;
36547;SDS011;22551;52.206;4.856;2022-08-16T06:07:31;42.03;;;24.90;;
36547;SDS011;22551;52.206;4.856;2022-08-16T06:12:35;43.30;;;25.42;;
36547;SDS011;22551;52.206;4.856;2022-08-16T06:17:38;45.53;;;26.10;;
36547;SDS011;22551;52.206;4.856;2022-08-16T06:22:40;40.63;;;26.25;;
36547;SDS011;22551;52.206;4.856;2022-08-16T06:27:45;43.93;;;25.33;;
36547;SDS011;22551;52.206;4.856;2022-08-16T06:32:47;40.03;;;24.23;;
36547;SDS011;22551;52.206;4.856;2022-08-16T06:37:49;40.85;;;23.63;;
36547;SDS011;22551;52.206;4.856;2022-08-16T06:42:53;42.90;;;24.33;;
36547;SDS011;22551;52.206;4.856;2022-08-16T06:47:56;50.42;;;25.52;;
36547;SDS011;22551;52.206;4.856;2022-08-16T06:52:58;39.38;;;24.13;;
36547;SDS011;22551;52.206;4.856;2022-08-16T06:58:02;36.35;;;23.67;;
36547;SDS011;22551;52.206;4.856;2022-08-16T07:03:04;38.38;;;24.42;;
36547;SDS011;22551;52.206;4.856;2022-08-16T07:08:07;39.75;;;25.70;;
36547;SDS011;22551;52.206;4.856;2022-08-16T07:13:12;48.78;;;26.05;;
36547;SDS011;22551;52.206;4.856;2022-08-16T07:18:14;44.50;;;26.23;;
36547;SDS011;22551;52.206;4.856;2022-08-16T07:23:19;38.88;;;24.63;;
36547;SDS011;22551;52.206;4.856;2022-08-16T07:28:23;41.17;;;23.83;;
36547;SDS011;22551;52.206;4.856;2022-08-16T07:33:25;46.67;;;25.77;;
36547;SDS011;22551;52.206;4.856;2022-08-16T07:38:27;56.25;;;27.95;;
36547;SDS011;22551;52.206;4.856;2022-08-16T07:43:31;35.63;;;22.95;;
36547;SDS011;22551;52.206;4.856;2022-08-16T07:48:34;43.95;;;24.40;;
36547;SDS011;22551;52.206;4.856;2022-08-16T07:53:36;292.50;;;49.67;;
36547;SDS011;22551;52.206;4.856;2022-08-16T07:58:39;33.53;;;21.92;;
36547;SDS011;22551;52.206;4.856;2022-08-16T08:03:42;38.85;;;23.20;;
36547;SDS011;22551;52.206;4.856;2022-08-16T08:08:44;37.05;;;23.50;;
36547;SDS011;22551;52.206;4.856;2022-08-16T08:13:47;38.78;;;23.02;;
36547;SDS011;22551;52.206;4.856;2022-08-16T08:18:50;34.90;;;21.65;;
36547;SDS011;22551;52.206;4.856;2022-08-16T08:23:54;33.20;;;21.75;;
36547;SDS011;22551;52.206;4.856;2022-08-16T08:28:58;33.95;;;22.58;;
36547;SDS011;22551;52.206;4.856;2022-08-16T08:34:01;32.63;;;20.92;;
36547;SDS011;22551;52.206;4.856;2022-08-16T08:39:04;36.47;;;20.73;;
36547;SDS011;22551;52.206;4.856;2022-08-16T08:54:13;30.70;;;21.27;;
36547;SDS011;22551;52.206;4.856;2022-08-16T08:59:16;34.22;;;21.77;;
36547;SDS011;22551;52.206;4.856;2022-08-16T09:04:18;40.15;;;22.60;;
36547;SDS011;22551;52.206;4.856;2022-08-16T09:09:21;27.63;;;19.17;;
36547;SDS011;22551;52.206;4.856;2022-08-16T09:14:25;30.45;;;19.15;;
36547;SDS011;22551;52.206;4.856;2022-08-16T09:19:27;28.30;;;19.63;;
36547;SDS011;22551;52.206;4.856;2022-08-16T09:24:29;28.60;;;19.80;;
36547;SDS011;22551;52.206;4.856;2022-08-16T09:29:33;26.23;;;18.35;;
36547;SDS011;22551;52.206;4.856;2022-08-16T09:34:35;32.72;;;22.58;;
36547;SDS011;22551;52.206;4.856;2022-08-16T09:39:37;32.05;;;20.33;;
36547;SDS011;22551;52.206;4.856;2022-08-16T09:44:41;27.77;;;18.73;;
36547;SDS011;22551;52.206;4.856;2022-08-16T09:49:43;33.22;;;22.27;;
36547;SDS011;22551;52.206;4.856;2022-08-16T09:54:45;31.90;;;20.53;;
36547;SDS011;22551;52.206;4.856;2022-08-16T09:59:49;27.30;;;18.30;;
36547;SDS011;22551;52.206;4.856;2022-08-16T10:04:51;30.80;;;19.42;;
36547;SDS011;22551;52.206;4.856;2022-08-16T10:14:57;35.75;;;20.38;;
36547;SDS011;22551;52.206;4.856;2022-08-16T10:20:00;26.52;;;19.65;;
36547;SDS011;22551;52.206;4.856;2022-08-16T10:25:02;28.85;;;19.33;;
36547;SDS011;22551;52.206;4.856;2022-08-16T10:30:07;27.00;;;16.98;;
36547;SDS011;22551;52.206;4.856;2022-08-16T10:35:10;20.85;;;15.57;;
36547;SDS011;22551;52.206;4.856;2022-08-16T10:40:13;28.30;;;20.13;;
36547;SDS011;22551;52.206;4.856;2022-08-16T10:45:18;26.98;;;18.17;;
36547;SDS011;22551;52.206;4.856;2022-08-16T10:50:20;39.03;;;21.08;;
36547;SDS011;22551;52.206;4.856;2022-08-16T10:55:23;21.08;;;15.43;;
36547;SDS011;22551;52.206;4.856;2022-08-16T11:00:27;22.50;;;15.45;;
36547;SDS011;22551;52.206;4.856;2022-08-16T11:05:33;27.13;;;17.40;;
36547;SDS011;22551;52.206;4.856;2022-08-16T11:10:39;24.02;;;16.88;;
36547;SDS011;22551;52.206;4.856;2022-08-16T11:15:45;23.15;;;15.65;;
36547;SDS011;22551;52.206;4.856;2022-08-16T11:20:47;27.70;;;14.75;;
36547;SDS011;22551;52.206;4.856;2022-08-16T11:25:50;22.17;;;14.35;;
36547;SDS011;22551;52.206;4.856;2022-08-16T11:35:56;18.50;;;13.25;;
36547;SDS011;22551;52.206;4.856;2022-08-16T11:40:58;22.63;;;13.98;;
36547;SDS011;22551;52.206;4.856;2022-08-16T11:46:04;21.70;;;14.63;;
36547;SDS011;22551;52.206;4.856;2022-08-16T11:51:09;19.65;;;13.73;;
36547;SDS011;22551;52.206;4.856;2022-08-16T12:01:15;17.73;;;13.30;;
36547;SDS011;22551;52.206;4.856;2022-08-16T12:06:17;24.23;;;15.18;;
36547;SDS011;22551;52.206;4.856;2022-08-16T12:11:20;25.05;;;15.68;;
36547;SDS011;22551;52.206;4.856;2022-08-16T12:16:24;20.35;;;16.17;;
36547;SDS011;22551;52.206;4.856;2022-08-16T12:21:26;23.55;;;12.70;;
36547;SDS011;22551;52.206;4.856;2022-08-16T12:26:28;20.42;;;13.27;;
36547;SDS011;22551;52.206;4.856;2022-08-16T12:31:32;18.92;;;10.98;;
36547;SDS011;22551;52.206;4.856;2022-08-16T12:36:35;18.17;;;11.40;;
36547;SDS011;22551;52.206;4.856;2022-08-16T12:41:38;21.45;;;13.65;;
36547;SDS011;22551;52.206;4.856;2022-08-16T12:46:42;17.70;;;13.05;;
36547;SDS011;22551;52.206;4.856;2022-08-16T12:52:05;14.27;;;10.70;;
36547;SDS011;22551;52.206;4.856;2022-08-16T12:57:07;16.83;;;11.15;;
36547;SDS011;22551;52.206;4.856;2022-08-16T13:02:11;21.33;;;11.68;;
36547;SDS011;22551;52.206;4.856;2022-08-16T13:07:13;16.58;;;10.32;;
36547;SDS011;22551;52.206;4.856;2022-08-16T13:12:16;21.52;;;11.88;;
36547;SDS011;22551;52.206;4.856;2022-08-16T13:17:24;22.95;;;12.85;;
36547;SDS011;22551;52.206;4.856;2022-08-16T13:22:27;20.27;;;13.95;;
36547;SDS011;22551;52.206;4.856;2022-08-16T13:27:29;19.70;;;11.68;;
36547;SDS011;22551;52.206;4.856;2022-08-16T13:32:33;33.37;;;14.70;;
36547;SDS011;22551;52.206;4.856;2022-08-16T13:37:35;29.58;;;15.15;;
36547;SDS011;22551;52.206;4.856;2022-08-16T14:15:03;29.20;;;14.90;;
36547;SDS011;22551;52.206;4.856;2022-08-16T14:20:07;22.67;;;14.93;;
36547;SDS011;22551;52.206;4.856;2022-08-16T14:25:12;20.38;;;13.60;;
36547;SDS011;22551;52.206;4.856;2022-08-16T14:30:19;28.00;;;16.92;;
36547;SDS011;22551;52.206;4.856;2022-08-16T14:35:23;40.42;;;16.48;;
36547;SDS011;22551;52.206;4.856;2022-08-16T14:40:27;32.80;;;16.75;;
36547;SDS011;22551;52.206;4.856;2022-08-16T14:45:31;19.83;;;12.65;;
36547;SDS011;22551;52.206;4.856;2022-08-16T14:50:33;17.67;;;12.07;;
36547;SDS011;22551;52.206;4.856;2022-08-16T14:55:35;28.43;;;14.03;;
36547;SDS011;22551;52.206;4.856;2022-08-16T15:00:40;24.15;;;15.52;;
36547;SDS011;22551;52.206;4.856;2022-08-16T15:05:42;21.20;;;12.63;;
36547;SDS011;22551;52.206;4.856;2022-08-16T15:10:45;25.00;;;15.57;;
36547;SDS011;22551;52.206;4.856;2022-08-16T15:15:50;17.60;;;11.77;;
36547;SDS011;22551;52.206;4.856;2022-08-16T15:20:52;29.13;;;13.48;;
36547;SDS011;22551;52.206;4.856;2022-08-16T15:25:54;14.13;;;10.48;;
36547;SDS011;22551;52.206;4.856;2022-08-16T15:30:59;20.50;;;12.10;;
36547;SDS011;22551;52.206;4.856;2022-08-16T15:36:02;16.50;;;9.57;;
36547;SDS011;22551;52.206;4.856;2022-08-16T15:41:05;19.95;;;9.02;;
36547;SDS011;22551;52.206;4.856;2022-08-16T15:46:08;14.68;;;9.25;;
36547;SDS011;22551;52.206;4.856;2022-08-16T15:51:23;13.73;;;9.27;;
36547;SDS011;22551;52.206;4.856;2022-08-16T15:56:25;13.93;;;10.00;;
36547;SDS011;22551;52.206;4.856;2022-08-16T16:01:29;20.75;;;11.10;;
36547;SDS011;22551;52.206;4.856;2022-08-16T16:06:31;21.17;;;11.55;;
36547;SDS011;22551;52.206;4.856;2022-08-16T16:11:33;19.58;;;12.45;;
36547;SDS011;22551;52.206;4.856;2022-08-16T16:16:38;15.25;;;11.70;;
36547;SDS011;22551;52.206;4.856;2022-08-16T16:21:41;17.25;;;11.05;;
36547;SDS011;22551;52.206;4.856;2022-08-16T16:26:43;13.32;;;9.88;;
36547;SDS011;22551;52.206;4.856;2022-08-16T16:31:47;18.40;;;10.30;;
36547;SDS011;22551;52.206;4.856;2022-08-16T16:36:50;16.20;;;11.82;;
36547;SDS011;22551;52.206;4.856;2022-08-16T16:41:52;16.55;;;12.13;;
36547;SDS011;22551;52.206;4.856;2022-08-16T16:46:56;12.73;;;7.93;;
36547;SDS011;22551;52.206;4.856;2022-08-16T16:51:59;17.85;;;9.95;;
36547;SDS011;22551;52.206;4.856;2022-08-16T16:57:02;15.85;;;10.13;;
36547;SDS011;22551;52.206;4.856;2022-08-16T17:02:05;16.97;;;10.87;;
36547;SDS011;22551;52.206;4.856;2022-08-16T17:07:12;13.55;;;10.38;;
36547;SDS011;22551;52.206;4.856;2022-08-16T17:12:14;17.13;;;8.82;;
36547;SDS011;22551;52.206;4.856;2022-08-16T17:17:18;13.60;;;8.43;;
36547;SDS011;22551;52.206;4.856;2022-08-16T17:22:20;14.23;;;9.57;;
36547;SDS011;22551;52.206;4.856;2022-08-16T17:27:23;17.37;;;11.00;;
36547;SDS011;22551;52.206;4.856;2022-08-16T17:32:28;19.27;;;10.02;;
36547;SDS011;22551;52.206;4.856;2022-08-16T17:37:30;14.75;;;8.75;;
36547;SDS011;22551;52.206;4.856;2022-08-16T17:42:33;16.20;;;8.07;;
36547;SDS011;22551;52.206;4.856;2022-08-16T17:47:37;14.07;;;9.18;;
36547;SDS011;22551;52.206;4.856;2022-08-16T17:52:39;18.58;;;10.43;;
36547;SDS011;22551;52.206;4.856;2022-08-16T17:57:42;15.13;;;8.75;;
36547;SDS011;22551;52.206;4.856;2022-08-16T18:02:46;15.73;;;11.45;;
36547;SDS011;22551;52.206;4.856;2022-08-16T18:07:49;15.68;;;10.80;;
36547;SDS011;22551;52.206;4.856;2022-08-16T18:12:52;16.63;;;9.60;;
36547;SDS011;22551;52.206;4.856;2022-08-16T18:17:57;20.98;;;8.65;;
36547;SDS011;22551;52.206;4.856;2022-08-16T18:23:01;12.15;;;9.20;;
36547;SDS011;22551;52.206;4.856;2022-08-16T18:28:06;20.33;;;14.25;;
36547;SDS011;22551;52.206;4.856;2022-08-16T18:33:09;16.02;;;10.85;;
36547;SDS011;22551;52.206;4.856;2022-08-16T18:38:12;22.33;;;12.30;;
36547;SDS011;22551;52.206;4.856;2022-08-16T18:43:16;14.83;;;11.17;;
36547;SDS011;22551;52.206;4.856;2022-08-16T18:48:24;17.45;;;11.32;;
36547;SDS011;22551;52.206;4.856;2022-08-16T18:53:27;17.98;;;10.00;;
36547;SDS011;22551;52.206;4.856;2022-08-16T18:58:29;16.42;;;9.48;;
36547;SDS011;22551;52.206;4.856;2022-08-16T19:03:34;11.43;;;8.20;;
36547;SDS011;22551;52.206;4.856;2022-08-16T19:08:37;12.07;;;7.45;;
36547;SDS011;22551;52.206;4.856;2022-08-16T19:13:41;13.77;;;8.77;;
36547;SDS011;22551;52.206;4.856;2022-08-16T19:18:46;11.65;;;7.72;;
36547;SDS011;22551;52.206;4.856;2022-08-16T19:23:53;8.25;;;7.03;;
36547;SDS011;22551;52.206;4.856;2022-08-16T19:28:57;10.57;;;8.50;;
36547;SDS011;22551;52.206;4.856;2022-08-16T19:34:01;12.98;;;9.68;;
36547;SDS011;22551;52.206;4.856;2022-08-16T19:39:05;12.63;;;8.43;;
36547;SDS011;22551;52.206;4.856;2022-08-16T19:44:12;8.35;;;7.20;;
36547;SDS011;22551;52.206;4.856;2022-08-16T19:49:18;9.60;;;6.95;;
36547;SDS011;22551;52.206;4.856;2022-08-16T19:54:20;8.73;;;7.18;;
36547;SDS011;22551;52.206;4.856;2022-08-16T20:04:27;9.23;;;6.95;;
36547;SDS011;22551;52.206;4.856;2022-08-16T20:09:31;12.40;;;8.73;;
36547;SDS011;22551;52.206;4.856;2022-08-16T20:14:35;13.90;;;7.33;;
36547;SDS011;22551;52.206;4.856;2022-08-16T20:19:42;10.70;;;8.45;;
36547;SDS011;22551;52.206;4.856;2022-08-16T20:24:45;15.70;;;9.20;;
36547;SDS011;22551;52.206;4.856;2022-08-16T20:29:48;13.30;;;7.57;;
36547;SDS011;22551;52.206;4.856;2022-08-16T20:34:52;12.18;;;7.95;;
36547;SDS011;22551;52.206;4.856;2022-08-16T20:39:55;11.60;;;8.10;;
36547;SDS011;22551;52.206;4.856;2022-08-16T20:44:57;8.50;;;7.30;;
36547;SDS011;22551;52.206;4.856;2022-08-16T20:50:05;10.38;;;7.50;;
36547;SDS011;22551;52.206;4.856;2022-08-16T20:55:08;13.13;;;8.40;;
36547;SDS011;22551;52.206;4.856;2022-08-16T21:00:11;10.18;;;7.65;;
36547;SDS011;22551;52.206;4.856;2022-08-16T21:05:18;10.43;;;8.00;;
36547;SDS011;22551;52.206;4.856;2022-08-16T21:10:25;8.82;;;7.85;;
36547;SDS011;22551;52.206;4.856;2022-08-16T21:15:30;10.32;;;7.57;;
36547;SDS011;22551;52.206;4.856;2022-08-16T21:20:35;14.75;;;9.10;;
36547;SDS011;22551;52.206;4.856;2022-08-16T21:25:37;12.73;;;8.20;;
36547;SDS011;22551;52.206;4.856;2022-08-16T21:30:41;15.90;;;11.70;;
36547;SDS011;22551;52.206;4.856;2022-08-16T21:35:47;26.65;;;17.27;;
36547;SDS011;22551;52.206;4.856;2022-08-16T21:40:53;21.55;;;16.00;;
36547;SDS011;22551;52.206;4.856;2022-08-16T21:45:55;28.88;;;18.05;;
36547;SDS011;22551;52.206;4.856;2022-08-16T21:50:58;30.15;;;19.75;;
36547;SDS011;22551;52.206;4.856;2022-08-16T21:56:01;27.95;;;18.77;;
36547;SDS011;22551;52.206;4.856;2022-08-16T22:01:03;27.33;;;19.70;;
36547;SDS011;22551;52.206;4.856;2022-08-16T22:06:07;26.55;;;19.15;;
36547;SDS011;22551;52.206;4.856;2022-08-16T22:11:09;23.20;;;17.25;;
36547;SDS011;22551;52.206;4.856;2022-08-16T22:16:11;32.70;;;19.30;;
36547;SDS011;22551;52.206;4.856;2022-08-16T22:21:15;45.25;;;26.52;;
36547;SDS011;22551;52.206;4.856;2022-08-16T22:26:17;35.93;;;24.73;;
36547;SDS011;22551;52.206;4.856;2022-08-16T22:31:19;41.22;;;26.67;;
36547;SDS011;22551;52.206;4.856;2022-08-16T22:36:36;45.88;;;27.75;;
36547;SDS011;22551;52.206;4.856;2022-08-16T22:41:50;46.08;;;28.80;;
36547;SDS011;22551;52.206;4.856;2022-08-16T22:46:52;54.45;;;33.25;;
36547;SDS011;22551;52.206;4.856;2022-08-16T22:52:00;54.72;;;34.70;;
36547;SDS011;22551;52.206;4.856;2022-08-16T22:57:06;47.75;;;30.30;;
36547;SDS011;22551;52.206;4.856;2022-08-16T23:02:08;49.10;;;30.10;;
36547;SDS011;22551;52.206;4.856;2022-08-16T23:07:12;45.45;;;29.15;;
36547;SDS011;22551;52.206;4.856;2022-08-16T23:12:14;37.97;;;26.83;;
36547;SDS011;22551;52.206;4.856;2022-08-16T23:17:16;42.35;;;24.80;;
36547;SDS011;22551;52.206;4.856;2022-08-16T23:22:19;45.97;;;28.58;;
36547;SDS011;22551;52.206;4.856;2022-08-16T23:27:21;35.55;;;24.38;;
36547;SDS011;22551;52.206;4.856;2022-08-16T23:32:23;36.10;;;23.75;;
36547;SDS011;22551;52.206;4.856;2022-08-16T23:37:27;36.65;;;25.40;;
36547;SDS011;22551;52.206;4.856;2022-08-16T23:42:29;31.27;;;21.60;;
36547;SDS011;22551;52.206;4.856;2022-08-16T23:47:33;37.33;;;24.80;;
36547;SDS011;22551;52.206;4.856;2022-08-16T23:52:36;42.95;;;25.17;;
36547;SDS011;22551;52.206;4.856;2022-08-16T23:57:38;39.47;;;26.50;;
